createdAt,value
2023-01-29T00:01:59.097Z,21.30
2023-01-29T00:04:26.166Z,21.17
2023-01-29T00:06:53.134Z,21.27
2023-01-29T00:09:20.326Z,22.33
2023-01-29T00:11:47.561Z,24.58
2023-01-29T00:14:14.509Z,22.20
2023-01-29T00:16:41.555Z,20.83
2023-01-29T00:19:08.561Z,21.85
2023-01-29T00:21:35.602Z,22.92
2023-01-29T00:24:02.611Z,23.27
2023-01-29T00:26:29.648Z,22.30
2023-01-29T00:29:02.163Z,23.10
2023-01-29T00:31:29.870Z,21.92
2023-01-29T00:33:57.469Z,21.42
2023-01-29T00:36:25.661Z,22.00
2023-01-29T00:38:58.969Z,21.90
2023-01-29T00:41:49.705Z,22.23
2023-01-29T00:44:35.562Z,20.88
2023-01-29T00:47:03.582Z,21.25
2023-01-29T00:49:38.367Z,21.40
2023-01-29T00:52:23.794Z,21.10
2023-01-29T00:54:55.222Z,22.63
2023-01-29T00:57:23.229Z,24.40
2023-01-29T00:59:50.260Z,26.63
2023-01-29T01:02:37.259Z,22.73
2023-01-29T01:05:07.879Z,22.08
2023-01-29T01:07:34.898Z,20.75
2023-01-29T01:10:20.522Z,22.00
2023-01-29T01:13:05.798Z,20.75
2023-01-29T01:15:38.343Z,21.63
2023-01-29T01:18:06.299Z,21.42
2023-01-29T01:20:35.546Z,24.58
2023-01-29T01:23:02.498Z,22.33
2023-01-29T01:25:29.506Z,21.23
2023-01-29T01:30:26.055Z,21.83
2023-01-29T01:32:53.438Z,21.65
2023-01-29T01:35:20.627Z,21.77
2023-01-29T01:37:47.583Z,21.98
2023-01-29T01:40:21.019Z,22.30
2023-01-29T01:42:49.991Z,21.52
2023-01-29T01:45:34.840Z,20.90
2023-01-29T01:48:07.542Z,22.50
2023-01-29T01:50:52.452Z,21.17
2023-01-29T01:53:26.681Z,21.02
2023-01-29T01:56:00.133Z,21.05
2023-01-29T01:58:50.669Z,21.85
2023-01-29T02:01:18.987Z,21.85
2023-01-29T02:04:09.201Z,21.65
2023-01-29T02:06:58.258Z,21.52
2023-01-29T02:09:53.812Z,22.15
2023-01-29T02:12:22.011Z,22.05
2023-01-29T02:14:49.543Z,22.23
2023-01-29T02:17:19.365Z,22.75
2023-01-29T02:20:06.787Z,21.10
2023-01-29T02:23:08.980Z,21.13
2023-01-29T02:26:01.784Z,21.58
2023-01-29T02:28:42.644Z,21.95
2023-01-29T02:31:20.736Z,22.60
2023-01-29T02:33:59.540Z,20.80
2023-01-29T02:36:52.046Z,20.27
2023-01-29T02:39:49.124Z,20.38
2023-01-29T02:42:31.280Z,20.05
2023-01-29T02:45:06.121Z,20.00
2023-01-29T02:48:01.949Z,20.02
2023-01-29T02:50:41.948Z,20.40
2023-01-29T02:53:27.570Z,20.95
2023-01-29T02:56:03.779Z,21.52
2023-01-29T02:58:36.824Z,20.70
2023-01-29T03:01:37.730Z,22.92
2023-01-29T03:04:10.872Z,21.27
2023-01-29T03:07:00.170Z,20.73
2023-01-29T03:09:47.776Z,21.08
2023-01-29T03:12:34.048Z,22.20
2023-01-29T03:15:16.119Z,22.27
2023-01-29T03:18:01.980Z,22.05
2023-01-29T03:20:38.575Z,22.48
2023-01-29T03:23:14.764Z,22.02
2023-01-29T03:26:02.318Z,21.90
2023-01-29T03:28:49.131Z,21.50
2023-01-29T03:31:37.414Z,20.60
2023-01-29T03:34:28.612Z,20.42
2023-01-29T03:37:07.806Z,20.77
2023-01-29T03:39:35.408Z,21.10
2023-01-29T03:42:35.513Z,20.80
2023-01-29T03:45:21.984Z,20.30
2023-01-29T03:48:22.187Z,20.17
2023-01-29T03:51:04.657Z,20.88
2023-01-29T03:53:40.525Z,20.40
2023-01-29T03:56:09.284Z,20.48
2023-01-29T03:58:54.186Z,20.90
2023-01-29T04:01:36.055Z,20.20
2023-01-29T04:04:34.337Z,20.88
2023-01-29T04:07:12.803Z,20.88
2023-01-29T04:09:46.796Z,20.75
2023-01-29T04:12:19.121Z,21.02
2023-01-29T04:14:48.783Z,20.25
2023-01-29T04:17:21.620Z,20.60
2023-01-29T04:19:49.169Z,21.75
2023-01-29T04:22:22.732Z,22.30
2023-01-29T04:24:51.387Z,20.77
2023-01-29T04:27:26.303Z,20.80
2023-01-29T04:30:08.662Z,21.23
2023-01-29T04:33:01.573Z,22.15
2023-01-29T04:35:44.517Z,21.50
2023-01-29T04:38:53.375Z,21.88
2023-01-29T04:41:35.586Z,21.38
2023-01-29T04:44:20.847Z,21.25
2023-01-29T04:46:57.777Z,21.33
2023-01-29T04:50:02.712Z,20.70
2023-01-29T04:53:12.993Z,20.95
2023-01-29T04:55:46.052Z,21.38
2023-01-29T04:58:42.573Z,20.92
2023-01-29T05:01:14.284Z,20.83
2023-01-29T05:03:44.844Z,21.77
2023-01-29T05:06:12.552Z,21.70
2023-01-29T05:08:41.272Z,22.17
2023-01-29T05:11:08.690Z,22.88
2023-01-29T05:13:39.631Z,22.10
2023-01-29T05:16:10.079Z,24.08
2023-01-29T05:18:37.137Z,23.27
2023-01-29T05:21:07.823Z,22.23
2023-01-29T05:23:35.003Z,22.17
2023-01-29T05:26:02.259Z,21.23
2023-01-29T05:28:29.241Z,26.83
2023-01-29T05:30:57.408Z,23.90
2023-01-29T05:33:29.549Z,21.88
2023-01-29T05:35:58.845Z,21.27
2023-01-29T05:38:26.323Z,21.85
2023-01-29T05:40:54.129Z,20.92
2023-01-29T05:43:23.803Z,21.90
2023-01-29T05:46:01.785Z,25.10
2023-01-29T05:48:31.451Z,21.27
2023-01-29T05:51:03.407Z,22.00
2023-01-29T05:53:30.849Z,22.05
2023-01-29T05:56:01.147Z,21.52
2023-01-29T05:58:28.247Z,21.45
2023-01-29T06:00:55.250Z,20.52
2023-01-29T06:03:22.283Z,21.08
2023-01-29T06:05:49.274Z,21.80
2023-01-29T06:08:16.226Z,20.98
2023-01-29T06:10:43.234Z,21.20
2023-01-29T06:13:10.263Z,21.35
2023-01-29T06:15:40.869Z,21.35
2023-01-29T06:18:07.843Z,21.73
2023-01-29T06:20:35.017Z,22.08
2023-01-29T06:23:02.028Z,21.58
2023-01-29T06:25:29.231Z,21.33
2023-01-29T06:27:59.149Z,20.63
2023-01-29T06:30:26.550Z,24.50
2023-01-29T06:32:58.894Z,22.63
2023-01-29T06:35:26.354Z,21.02
2023-01-29T06:37:53.527Z,21.38
2023-01-29T06:40:20.724Z,22.23
2023-01-29T06:42:47.691Z,21.52
2023-01-29T06:45:14.831Z,23.50
2023-01-29T06:47:41.778Z,23.08
2023-01-29T06:50:09.345Z,21.88
2023-01-29T06:52:36.319Z,22.40
2023-01-29T06:55:03.321Z,21.88
2023-01-29T06:57:30.330Z,20.63
2023-01-29T06:59:57.392Z,20.75
2023-01-29T07:02:24.387Z,20.85
2023-01-29T07:04:51.365Z,20.50
2023-01-29T07:07:18.640Z,19.48
2023-01-29T07:09:45.565Z,20.20
2023-01-29T07:12:12.751Z,20.48
2023-01-29T07:14:39.799Z,21.10
2023-01-29T07:17:06.858Z,19.92
2023-01-29T07:19:33.836Z,20.48
2023-01-29T07:22:02.651Z,20.35
2023-01-29T07:24:29.872Z,21.23
2023-01-29T07:26:57.009Z,19.90
2023-01-29T07:29:24.170Z,19.73
2023-01-29T07:31:51.403Z,20.65
2023-01-29T07:34:18.561Z,19.83
2023-01-29T07:36:45.552Z,21.33
2023-01-29T07:39:12.681Z,19.90
2023-01-29T07:41:39.775Z,21.25
2023-01-29T07:44:06.771Z,21.25
2023-01-29T07:46:33.756Z,21.17
2023-01-29T07:49:00.742Z,24.88
2023-01-29T07:51:27.740Z,22.73
2023-01-29T07:53:54.719Z,22.35
2023-01-29T07:56:21.748Z,21.30
2023-01-29T07:58:48.730Z,20.60
2023-01-29T08:01:15.841Z,23.27
2023-01-29T08:03:42.924Z,20.75
2023-01-29T08:06:10.498Z,23.08
2023-01-29T08:08:37.431Z,22.10
2023-01-29T08:11:05.759Z,21.85
2023-01-29T08:13:33.229Z,21.85
2023-01-29T08:16:02.990Z,21.48
2023-01-29T08:18:31.690Z,21.25
2023-01-29T08:21:02.220Z,20.92
2023-01-29T08:23:29.271Z,22.60
2023-01-29T08:25:56.395Z,23.00
2023-01-29T08:28:23.493Z,21.60
2023-01-29T08:30:50.573Z,22.20
2023-01-29T08:33:19.451Z,21.15
2023-01-29T08:35:52.347Z,22.63
2023-01-29T08:38:19.588Z,21.70
2023-01-29T08:40:46.606Z,20.83
2023-01-29T08:43:14.232Z,21.73
2023-01-29T08:45:43.138Z,24.17
2023-01-29T08:48:10.463Z,23.23
2023-01-29T08:50:38.175Z,22.20
2023-01-29T08:53:09.948Z,30.58
2023-01-29T08:55:38.893Z,27.58
2023-01-29T08:58:11.023Z,26.13
2023-01-29T09:00:38.628Z,56.67
2023-01-29T09:03:07.977Z,27.80
2023-01-29T09:05:38.461Z,22.33
2023-01-29T09:08:06.038Z,21.23
2023-01-29T09:10:33.663Z,20.20
2023-01-29T09:13:00.940Z,21.13
2023-01-29T09:15:28.270Z,22.23
2023-01-29T09:17:55.266Z,20.33
2023-01-29T09:20:22.384Z,19.63
2023-01-29T09:22:50.753Z,20.13
2023-01-29T09:25:18.088Z,21.15
2023-01-29T09:27:45.317Z,19.40
2023-01-29T09:30:12.799Z,19.45
2023-01-29T09:32:55.397Z,19.13
2023-01-29T09:35:23.649Z,19.40
2023-01-29T09:37:51.828Z,20.20
2023-01-29T09:40:25.896Z,21.17
2023-01-29T09:43:01.604Z,20.27
2023-01-29T09:45:29.766Z,20.13
2023-01-29T09:48:02.407Z,19.63
2023-01-29T09:50:43.781Z,19.23
2023-01-29T09:53:22.540Z,20.20
2023-01-29T09:56:01.266Z,19.52
2023-01-29T09:58:28.272Z,20.05
2023-01-29T10:00:55.157Z,18.80
2023-01-29T10:03:43.346Z,19.10
2023-01-29T10:06:19.257Z,18.95
2023-01-29T10:09:04.755Z,19.58
2023-01-29T10:11:37.270Z,19.58
2023-01-29T10:14:41.059Z,19.38
2023-01-29T10:17:50.451Z,20.45
2023-01-29T10:20:41.440Z,18.58
2023-01-29T10:23:27.278Z,20.17
2023-01-29T10:25:54.661Z,18.77
2023-01-29T10:28:29.155Z,19.65
2023-01-29T10:31:00.677Z,19.42
2023-01-29T10:33:54.187Z,18.77
2023-01-29T10:36:32.759Z,19.67
2023-01-29T10:38:59.784Z,20.40
2023-01-29T10:41:45.435Z,19.75
2023-01-29T10:44:31.147Z,19.70
2023-01-29T10:47:13.857Z,19.50
2023-01-29T10:49:40.752Z,21.92
2023-01-29T10:52:29.445Z,18.95
2023-01-29T10:55:21.300Z,20.35
2023-01-29T10:57:52.780Z,19.88
2023-01-29T11:00:30.617Z,19.13
2023-01-29T11:02:58.262Z,18.80
2023-01-29T11:05:36.406Z,18.83
2023-01-29T11:08:15.171Z,20.92
2023-01-29T11:11:12.133Z,20.13
2023-01-29T11:13:52.559Z,19.98
2023-01-29T11:16:19.547Z,19.20
2023-01-29T11:19:01.704Z,18.33
2023-01-29T11:21:29.949Z,19.98
2023-01-29T11:24:15.555Z,19.35
2023-01-29T11:26:44.060Z,19.45
2023-01-29T11:29:48.181Z,18.98
2023-01-29T11:32:24.221Z,18.40
2023-01-29T11:34:59.752Z,19.35
2023-01-29T11:37:38.348Z,19.42
2023-01-29T11:40:34.546Z,19.80
2023-01-29T11:43:31.360Z,19.65
2023-01-29T11:46:03.805Z,19.88
2023-01-29T11:48:40.439Z,19.88
2023-01-29T11:51:10.477Z,20.60
2023-01-29T11:53:37.616Z,22.52
2023-01-29T11:56:15.778Z,20.83
2023-01-29T11:58:43.503Z,20.52
2023-01-29T12:01:11.224Z,19.27
2023-01-29T12:03:44.526Z,19.88
2023-01-29T12:06:22.594Z,20.42
2023-01-29T12:09:01.550Z,21.80
2023-01-29T12:11:31.357Z,21.48
2023-01-29T12:14:03.927Z,22.02
2023-01-29T12:16:43.593Z,20.70
2023-01-29T12:19:38.462Z,19.65
2023-01-29T12:22:12.214Z,19.98
2023-01-29T12:24:59.470Z,19.83
2023-01-29T12:27:43.456Z,19.67
2023-01-29T12:30:26.058Z,20.05
2023-01-29T12:33:14.214Z,19.40
2023-01-29T12:35:48.481Z,19.95
2023-01-29T12:38:20.056Z,20.15
2023-01-29T12:40:48.908Z,19.27
2023-01-29T12:43:24.180Z,19.10
2023-01-29T12:45:54.424Z,19.88
2023-01-29T12:48:48.283Z,20.10
2023-01-29T12:51:23.729Z,20.15
2023-01-29T12:54:07.594Z,19.83
2023-01-29T12:56:42.781Z,19.85
2023-01-29T12:59:37.010Z,20.00
2023-01-29T13:02:13.095Z,19.23
2023-01-29T13:04:48.797Z,19.02
2023-01-29T13:07:19.697Z,20.42
2023-01-29T13:09:55.264Z,20.45
2023-01-29T13:12:23.418Z,18.92
2023-01-29T13:15:24.417Z,19.33
2023-01-29T13:17:59.126Z,19.33
2023-01-29T13:20:35.433Z,20.10
2023-01-29T13:23:29.033Z,18.83
2023-01-29T13:25:57.182Z,21.83
2023-01-29T13:28:26.939Z,19.55
2023-01-29T13:31:30.303Z,19.00
2023-01-29T13:34:00.343Z,19.30
2023-01-29T13:36:30.358Z,19.63
2023-01-29T13:39:24.071Z,21.00
2023-01-29T13:41:52.992Z,21.20
2023-01-29T13:44:34.651Z,21.17
2023-01-29T13:47:10.961Z,19.85
2023-01-29T13:49:45.858Z,20.55
2023-01-29T13:52:26.445Z,21.55
2023-01-29T13:54:58.699Z,21.77
2023-01-29T13:57:55.698Z,21.63
2023-01-29T14:00:24.497Z,20.73
2023-01-29T14:03:00.640Z,20.20
2023-01-29T14:05:31.001Z,21.77
2023-01-29T14:08:17.773Z,21.25
2023-01-29T14:10:44.788Z,22.48
2023-01-29T14:13:23.660Z,21.15
2023-01-29T14:15:59.917Z,21.23
2023-01-29T14:18:29.723Z,20.88
2023-01-29T14:21:06.027Z,20.55
2023-01-29T14:23:53.465Z,20.50
2023-01-29T14:26:23.278Z,21.13
2023-01-29T14:29:25.652Z,22.30
2023-01-29T14:32:19.421Z,23.27
2023-01-29T14:34:50.312Z,21.83
2023-01-29T14:37:17.284Z,22.45
2023-01-29T14:39:53.192Z,21.58
2023-01-29T14:42:31.584Z,20.52
2023-01-29T14:45:19.335Z,21.15
2023-01-29T14:47:49.382Z,21.10
2023-01-29T14:50:22.161Z,21.30
2023-01-29T14:52:51.863Z,20.77
2023-01-29T14:55:35.566Z,21.60
2023-01-29T14:58:03.807Z,23.10
2023-01-29T15:00:35.123Z,21.92
2023-01-29T15:03:04.218Z,22.80
2023-01-29T15:05:37.404Z,23.17
2023-01-29T15:08:09.059Z,22.20
2023-01-29T15:10:45.768Z,20.55
2023-01-29T15:13:31.218Z,21.05
2023-01-29T15:16:25.023Z,21.88
2023-01-29T15:19:04.499Z,24.25
2023-01-29T15:21:31.456Z,33.40
2023-01-29T15:24:05.707Z,27.05
2023-01-29T15:26:33.661Z,22.13
2023-01-29T15:29:04.695Z,23.63
2023-01-29T15:31:32.599Z,26.15
2023-01-29T15:34:05.072Z,21.67
2023-01-29T15:36:33.016Z,21.95
2023-01-29T15:39:12.022Z,20.52
2023-01-29T15:41:39.311Z,20.30
2023-01-29T15:44:16.734Z,21.35
2023-01-29T15:46:49.185Z,23.42
2023-01-29T15:49:24.045Z,22.27
2023-01-29T15:51:57.223Z,23.88
2023-01-29T15:54:25.809Z,25.55
2023-01-29T15:56:54.341Z,23.83
2023-01-29T15:59:34.689Z,22.60
2023-01-29T16:02:41.650Z,22.30
2023-01-29T16:05:22.743Z,22.55
2023-01-29T16:07:51.564Z,20.58
2023-01-29T16:10:32.699Z,20.77
2023-01-29T16:13:00.492Z,20.40
2023-01-29T16:15:35.136Z,21.05
2023-01-29T16:18:05.683Z,21.25
2023-01-29T16:20:37.815Z,21.58
2023-01-29T16:23:06.353Z,20.75
2023-01-29T16:25:34.888Z,21.83
2023-01-29T16:28:05.241Z,21.75
2023-01-29T16:30:32.308Z,21.58
2023-01-29T16:33:04.881Z,22.40
2023-01-29T16:35:32.948Z,22.27
2023-01-29T16:38:07.176Z,21.65
2023-01-29T16:40:37.674Z,23.35
2023-01-29T16:43:19.563Z,23.63
2023-01-29T16:46:15.840Z,25.98
2023-01-29T16:48:42.856Z,27.90
2023-01-29T16:51:21.588Z,27.27
2023-01-29T16:53:57.758Z,24.75
2023-01-29T16:56:27.208Z,24.02
2023-01-29T16:58:55.555Z,23.38
2023-01-29T17:01:25.933Z,23.88
2023-01-29T17:04:15.035Z,23.90
2023-01-29T17:06:45.878Z,23.55
2023-01-29T17:09:25.506Z,23.88
2023-01-29T17:12:07.890Z,23.88
2023-01-29T17:14:38.094Z,24.33
2023-01-29T17:17:16.164Z,24.08
2023-01-29T17:19:43.124Z,24.98
2023-01-29T17:22:14.849Z,24.45
2023-01-29T17:24:42.533Z,24.23
2023-01-29T17:27:28.180Z,24.20
2023-01-29T17:29:55.493Z,24.73
2023-01-29T17:32:22.649Z,24.65
2023-01-29T17:34:51.652Z,24.65
2023-01-29T17:37:18.653Z,23.27
2023-01-29T17:39:51.303Z,24.40
2023-01-29T17:42:18.406Z,23.90
2023-01-29T17:44:45.429Z,24.83
2023-01-29T17:47:15.669Z,26.02
2023-01-29T17:49:43.531Z,26.60
2023-01-29T17:52:10.665Z,26.60
2023-01-29T17:54:37.968Z,26.50
2023-01-29T17:57:04.947Z,26.25
2023-01-29T17:59:33.469Z,25.08
2023-01-29T18:02:00.784Z,25.52
2023-01-29T18:04:28.103Z,24.17
2023-01-29T18:06:58.038Z,24.80
2023-01-29T18:09:25.714Z,24.58
2023-01-29T18:11:53.711Z,24.05
2023-01-29T18:14:20.873Z,24.83
2023-01-29T18:16:48.097Z,25.20
2023-01-29T18:19:22.417Z,26.48
2023-01-29T18:21:50.409Z,23.55
2023-01-29T18:24:17.412Z,24.25
2023-01-29T18:26:44.546Z,25.58
2023-01-29T18:29:11.599Z,24.80
2023-01-29T18:31:38.625Z,24.88
2023-01-29T18:34:05.857Z,25.40
2023-01-29T18:36:32.974Z,25.38
2023-01-29T18:38:59.953Z,24.17
2023-01-29T18:41:26.931Z,25.55
2023-01-29T18:43:54.271Z,25.05
2023-01-29T18:46:22.494Z,27.35
2023-01-29T18:48:49.611Z,26.20
2023-01-29T18:51:16.547Z,25.17
2023-01-29T18:53:45.363Z,24.85
2023-01-29T18:56:13.464Z,23.70
2023-01-29T18:58:40.564Z,25.38
2023-01-29T19:01:11.895Z,26.08
2023-01-29T19:03:40.977Z,26.20
2023-01-29T19:06:10.728Z,25.83
2023-01-29T19:08:37.792Z,26.02
2023-01-29T19:11:08.303Z,25.45
2023-01-29T19:13:37.075Z,24.85
2023-01-29T19:16:07.897Z,24.92
2023-01-29T19:18:35.029Z,25.05
2023-01-29T19:21:11.005Z,26.38
2023-01-29T19:23:38.660Z,26.48
2023-01-29T19:26:06.085Z,26.48
2023-01-29T19:28:33.420Z,28.38
2023-01-29T19:31:00.973Z,27.45
2023-01-29T19:33:28.547Z,28.17
2023-01-29T19:35:59.706Z,27.65
2023-01-29T19:38:27.190Z,26.98
2023-01-29T19:40:55.291Z,27.38
2023-01-29T19:43:22.322Z,27.70
2023-01-29T19:45:51.059Z,27.73
2023-01-29T19:48:21.884Z,26.98
2023-01-29T19:50:53.935Z,27.02
2023-01-29T19:53:21.727Z,27.30
2023-01-29T19:55:56.672Z,27.13
2023-01-29T19:58:24.987Z,28.33
2023-01-29T20:01:00.237Z,27.25
2023-01-29T20:03:28.949Z,27.40
2023-01-29T20:06:01.041Z,27.55
2023-01-29T20:08:28.005Z,26.98
2023-01-29T20:10:55.071Z,27.38
2023-01-29T20:13:22.202Z,26.88
2023-01-29T20:15:50.792Z,26.92
2023-01-29T20:18:18.539Z,26.20
2023-01-29T20:20:50.715Z,26.63
2023-01-29T20:23:31.742Z,26.77
2023-01-29T20:26:04.328Z,25.80
2023-01-29T20:28:31.323Z,27.10
2023-01-29T20:31:11.553Z,27.02
2023-01-29T20:33:39.596Z,27.08
2023-01-29T20:36:10.188Z,37.45
2023-01-29T20:38:37.677Z,37.78
2023-01-29T20:41:11.786Z,52.45
2023-01-29T20:43:38.990Z,44.50
2023-01-29T20:46:06.182Z,30.60
2023-01-29T20:48:33.856Z,27.33
2023-01-29T20:51:09.977Z,28.35
2023-01-29T20:53:37.306Z,26.00
2023-01-29T20:56:05.325Z,26.55
2023-01-29T20:58:32.859Z,28.52
2023-01-29T21:01:00.682Z,24.98
2023-01-29T21:03:28.066Z,27.02
2023-01-29T21:05:57.720Z,26.95
2023-01-29T21:08:24.991Z,25.90
2023-01-29T21:10:55.179Z,26.90
2023-01-29T21:13:22.271Z,25.73
2023-01-29T21:15:52.472Z,25.38
2023-01-29T21:18:19.760Z,27.40
2023-01-29T21:20:48.864Z,26.58
2023-01-29T21:23:16.147Z,26.30
2023-01-29T21:25:43.254Z,27.05
2023-01-29T21:28:10.291Z,27.48
2023-01-29T21:30:37.656Z,26.60
2023-01-29T21:33:05.395Z,27.38
2023-01-29T21:35:32.625Z,27.55
2023-01-29T21:37:59.690Z,28.30
2023-01-29T21:40:26.931Z,29.55
2023-01-29T21:43:12.289Z,28.73
2023-01-29T21:45:40.687Z,28.35
2023-01-29T21:48:08.705Z,27.92
2023-01-29T21:50:36.152Z,27.88
2023-01-29T21:53:03.195Z,28.42
2023-01-29T21:55:30.680Z,26.95
2023-01-29T21:57:57.827Z,27.02
2023-01-29T22:00:47.863Z,27.38
2023-01-29T22:03:15.114Z,28.02
2023-01-29T22:05:43.595Z,28.15
2023-01-29T22:08:10.765Z,27.33
2023-01-29T22:10:37.997Z,27.55
2023-01-29T22:13:05.428Z,28.30
2023-01-29T22:15:32.447Z,27.55
2023-01-29T22:17:59.563Z,28.42
2023-01-29T22:20:30.834Z,29.15
2023-01-29T22:22:59.502Z,28.77
2023-01-29T22:25:27.279Z,28.65
2023-01-29T22:27:57.219Z,29.10
2023-01-29T22:30:24.710Z,28.33
2023-01-29T22:32:51.816Z,28.05
2023-01-29T22:35:18.953Z,27.77
2023-01-29T22:37:46.070Z,27.63
2023-01-29T22:40:13.837Z,27.65
2023-01-29T22:42:40.918Z,26.75
2023-01-29T22:45:09.141Z,27.55
2023-01-29T22:47:36.337Z,27.33
2023-01-29T22:50:05.249Z,27.25
2023-01-29T22:52:38.759Z,27.48
2023-01-29T22:55:08.420Z,27.55
2023-01-29T22:57:35.624Z,28.35
2023-01-29T23:00:06.843Z,27.45
2023-01-29T23:02:33.972Z,28.08
2023-01-29T23:05:01.039Z,27.33
2023-01-29T23:07:28.257Z,27.65
2023-01-29T23:09:55.333Z,27.77
2023-01-29T23:12:22.485Z,27.13
2023-01-29T23:14:49.533Z,27.60
2023-01-29T23:17:16.634Z,27.30
2023-01-29T23:19:43.756Z,28.08
2023-01-29T23:22:13.322Z,27.80
2023-01-29T23:24:40.397Z,27.77
2023-01-29T23:27:17.263Z,28.67
2023-01-29T23:29:49.067Z,27.80
2023-01-29T23:32:18.956Z,27.15
2023-01-29T23:34:46.059Z,28.25
2023-01-29T23:37:13.300Z,27.17
2023-01-29T23:39:40.485Z,27.65
2023-01-29T23:42:07.684Z,27.58
2023-01-29T23:44:35.798Z,27.85
2023-01-29T23:47:03.128Z,26.67
2023-01-29T23:49:30.428Z,27.70
2023-01-29T23:51:57.628Z,28.20
2023-01-29T23:54:24.877Z,27.70
2023-01-29T23:56:52.266Z,27.55
2023-01-29T23:59:19.703Z,28.20
